createdAt,value
2022-09-28T00:01:58.915Z,8.77
2022-09-28T00:04:25.590Z,8.75
2022-09-28T00:06:52.167Z,8.70
2022-09-28T00:09:18.782Z,8.63
2022-09-28T00:11:46.102Z,8.61
2022-09-28T00:14:13.429Z,8.56
2022-09-28T00:16:43.495Z,8.46
2022-09-28T00:19:11.849Z,8.48
2022-09-28T00:21:40.580Z,8.45
2022-09-28T00:24:22.942Z,8.41
2022-09-28T00:26:56.991Z,8.36
2022-09-28T00:29:32.762Z,8.33
2022-09-28T00:32:09.657Z,8.36
2022-09-28T00:34:43.164Z,8.39
2022-09-28T00:37:10.162Z,8.41
2022-09-28T00:39:38.416Z,8.46
2022-09-28T00:42:12.444Z,8.48
2022-09-28T00:44:46.587Z,8.52
2022-09-28T00:47:41.680Z,8.52
2022-09-28T00:50:11.243Z,8.54
2022-09-28T00:52:48.559Z,8.55
2022-09-28T00:55:18.976Z,8.50
2022-09-28T00:57:51.935Z,8.49
2022-09-28T01:00:19.147Z,8.49
2022-09-28T01:02:46.905Z,8.52
2022-09-28T01:05:18.386Z,8.51
2022-09-28T01:07:46.582Z,8.48
2022-09-28T01:10:14.223Z,8.43
2022-09-28T01:12:40.714Z,8.40
2022-09-28T01:15:07.610Z,8.39
2022-09-28T01:17:44.843Z,8.41
2022-09-28T01:20:33.903Z,8.41
2022-09-28T01:23:15.536Z,8.43
2022-09-28T01:25:48.074Z,8.46
2022-09-28T01:28:17.297Z,8.51
2022-09-28T01:31:05.560Z,8.50
2022-09-28T01:33:56.973Z,8.56
2022-09-28T01:36:55.283Z,8.53
2022-09-28T01:39:29.507Z,8.51
2022-09-28T01:42:00.709Z,8.51
2022-09-28T01:44:31.035Z,8.50
2022-09-28T01:47:04.274Z,8.43
2022-09-28T01:49:46.013Z,8.37
2022-09-28T01:52:25.159Z,8.35
2022-09-28T01:55:01.497Z,8.33
2022-09-28T01:58:10.940Z,8.41
2022-09-28T02:00:42.548Z,8.42
2022-09-28T02:03:16.346Z,8.45
2022-09-28T02:05:59.545Z,8.51
2022-09-28T02:08:34.820Z,8.54
2022-09-28T02:11:11.546Z,8.58
2022-09-28T02:13:43.090Z,8.62
2022-09-28T02:16:21.746Z,8.66
2022-09-28T02:18:48.283Z,8.67
2022-09-28T02:21:29.708Z,8.69
2022-09-28T02:24:01.069Z,8.71
2022-09-28T02:26:34.901Z,8.71
2022-09-28T02:29:01.516Z,8.76
2022-09-28T02:31:28.371Z,8.80
2022-09-28T02:33:57.682Z,8.83
2022-09-28T02:36:26.362Z,8.85
2022-09-28T02:38:53.672Z,8.86
2022-09-28T02:41:32.868Z,8.88
2022-09-28T02:44:05.997Z,8.88
2022-09-28T02:46:52.904Z,8.90
2022-09-28T02:49:47.014Z,8.92
2022-09-28T02:52:16.377Z,8.94
2022-09-28T02:55:04.586Z,8.92
2022-09-28T02:57:46.306Z,8.92
2022-09-28T03:00:19.935Z,8.91
2022-09-28T03:02:46.382Z,8.88
2022-09-28T03:05:21.060Z,8.90
2022-09-28T03:07:57.035Z,8.89
2022-09-28T03:10:29.803Z,8.89
2022-09-28T03:12:57.616Z,8.91
2022-09-28T03:15:27.532Z,8.90
2022-09-28T03:17:54.607Z,8.92
2022-09-28T03:20:21.170Z,8.95
2022-09-28T03:23:06.048Z,8.94
2022-09-28T03:25:34.263Z,8.96
2022-09-28T03:28:00.966Z,8.98
2022-09-28T03:30:27.790Z,8.99
2022-09-28T03:33:03.563Z,8.98
2022-09-28T03:35:30.025Z,9.03
2022-09-28T03:37:57.187Z,9.05
2022-09-28T03:40:24.117Z,9.06
2022-09-28T03:42:50.659Z,9.08
2022-09-28T03:45:17.191Z,9.07
2022-09-28T03:47:47.071Z,9.09
2022-09-28T03:50:13.693Z,9.12
2022-09-28T03:52:40.316Z,9.11
2022-09-28T03:55:07.305Z,9.09
2022-09-28T03:57:33.768Z,9.08
2022-09-28T04:00:00.450Z,9.07
2022-09-28T04:02:27.041Z,9.07
2022-09-28T04:04:53.554Z,9.04
2022-09-28T04:07:20.051Z,9.00
2022-09-28T04:09:46.549Z,8.95
2022-09-28T04:12:13.010Z,8.90
2022-09-28T04:14:39.493Z,8.85
2022-09-28T04:17:07.259Z,8.77
2022-09-28T04:19:33.798Z,8.67
2022-09-28T04:22:01.943Z,8.64
2022-09-28T04:24:28.449Z,8.59
2022-09-28T04:27:14.903Z,8.57
2022-09-28T04:29:41.715Z,8.54
2022-09-28T04:32:08.264Z,8.53
2022-09-28T04:34:37.226Z,8.46
2022-09-28T04:37:05.288Z,8.42
2022-09-28T04:39:31.848Z,8.41
2022-09-28T04:41:58.310Z,8.38
2022-09-28T04:44:26.196Z,8.31
2022-09-28T04:46:55.191Z,8.25
2022-09-28T04:49:21.682Z,8.29
2022-09-28T04:51:48.150Z,8.24
2022-09-28T04:54:14.634Z,8.24
2022-09-28T04:56:41.785Z,8.19
2022-09-28T04:59:08.274Z,8.15
2022-09-28T05:01:34.809Z,8.10
2022-09-28T05:04:01.550Z,7.98
2022-09-28T05:06:30.649Z,7.90
2022-09-28T05:08:57.567Z,7.86
2022-09-28T05:11:24.206Z,7.82
2022-09-28T05:13:50.769Z,7.78
2022-09-28T05:16:17.589Z,7.77
2022-09-28T05:18:44.083Z,7.65
2022-09-28T05:21:12.771Z,7.64
2022-09-28T05:23:40.282Z,7.58
2022-09-28T05:26:07.390Z,7.57
2022-09-28T05:28:34.199Z,7.52
2022-09-28T05:31:02.339Z,7.50
2022-09-28T05:33:29.753Z,7.56
2022-09-28T05:36:00.925Z,7.62
2022-09-28T05:38:28.688Z,7.66
2022-09-28T05:40:55.845Z,7.74
2022-09-28T05:43:22.724Z,7.75
2022-09-28T05:45:54.276Z,7.85
2022-09-28T05:48:20.970Z,7.94
2022-09-28T05:50:52.359Z,7.95
2022-09-28T05:53:19.389Z,8.02
2022-09-28T05:55:45.992Z,8.11
2022-09-28T05:58:12.555Z,8.13
2022-09-28T06:00:39.423Z,8.20
2022-09-28T06:03:10.503Z,8.25
2022-09-28T06:05:39.351Z,8.35
2022-09-28T06:08:08.383Z,8.40
2022-09-28T06:10:35.310Z,8.46
2022-09-28T06:13:01.973Z,8.50
2022-09-28T06:15:31.070Z,8.62
2022-09-28T06:17:59.569Z,8.72
2022-09-28T06:20:27.639Z,8.80
2022-09-28T06:22:54.403Z,8.86
2022-09-28T06:25:22.657Z,8.94
2022-09-28T06:27:59.057Z,9.03
2022-09-28T06:30:27.269Z,9.15
2022-09-28T06:32:56.120Z,9.24
2022-09-28T06:35:25.480Z,9.35
2022-09-28T06:37:53.299Z,9.45
2022-09-28T06:40:21.464Z,9.58
2022-09-28T06:43:00.962Z,9.70
2022-09-28T06:45:29.654Z,9.79
2022-09-28T06:48:00.770Z,9.91
2022-09-28T06:50:40.540Z,10.01
2022-09-28T06:53:09.528Z,10.18
2022-09-28T06:55:39.066Z,10.26
2022-09-28T06:58:09.797Z,10.35
2022-09-28T07:00:38.125Z,10.47
2022-09-28T07:03:07.348Z,10.55
2022-09-28T07:05:36.894Z,10.66
2022-09-28T07:08:04.420Z,10.74
2022-09-28T07:10:32.460Z,10.85
2022-09-28T07:13:02.703Z,10.96
2022-09-28T07:15:29.806Z,11.05
2022-09-28T07:18:02.557Z,11.14
2022-09-28T07:20:30.695Z,11.28
2022-09-28T07:23:15.284Z,11.36
2022-09-28T07:25:49.608Z,11.48
2022-09-28T07:28:17.347Z,11.56
2022-09-28T07:30:47.429Z,11.69
2022-09-28T07:33:15.922Z,11.80
2022-09-28T07:35:50.757Z,11.88
2022-09-28T07:38:17.234Z,11.97
2022-09-28T07:41:02.342Z,12.07
2022-09-28T07:43:28.861Z,12.18
2022-09-28T07:45:55.788Z,12.27
2022-09-28T07:48:23.395Z,12.39
2022-09-28T07:50:57.370Z,12.51
2022-09-28T07:53:25.478Z,12.66
2022-09-28T07:55:57.221Z,12.74
2022-09-28T07:58:23.717Z,12.86
2022-09-28T08:00:51.125Z,12.97
2022-09-28T08:03:18.779Z,13.10
2022-09-28T08:05:46.954Z,13.23
2022-09-28T08:08:14.053Z,13.32
2022-09-28T08:10:46.791Z,13.45
2022-09-28T08:13:15.258Z,13.58
2022-09-28T08:15:42.613Z,13.77
2022-09-28T08:18:09.856Z,13.81
2022-09-28T08:20:56.748Z,13.87
2022-09-28T08:23:23.705Z,13.93
2022-09-28T08:25:54.119Z,13.98
2022-09-28T08:28:23.247Z,14.10
2022-09-28T08:30:50.262Z,14.23
2022-09-28T08:33:21.287Z,14.30
2022-09-28T08:35:48.323Z,14.42
2022-09-28T08:38:15.343Z,14.51
2022-09-28T08:40:58.862Z,14.56
2022-09-28T08:43:37.787Z,14.56
2022-09-28T08:46:04.433Z,14.60
2022-09-28T08:48:56.289Z,14.60
2022-09-28T08:51:33.842Z,14.57
2022-09-28T08:54:21.027Z,14.63
2022-09-28T08:56:52.455Z,14.73
2022-09-28T08:59:23.564Z,14.81
2022-09-28T09:02:03.617Z,14.95
2022-09-28T09:04:32.880Z,15.15
2022-09-28T09:07:19.730Z,15.23
2022-09-28T09:10:01.144Z,15.26
2022-09-28T09:12:36.937Z,15.22
2022-09-28T09:15:17.478Z,15.25
2022-09-28T09:18:08.967Z,15.30
2022-09-28T09:20:50.461Z,15.49
2022-09-28T09:23:28.400Z,15.60
2022-09-28T09:26:03.634Z,15.82
2022-09-28T09:29:01.224Z,15.91
2022-09-28T09:31:39.906Z,15.96
2022-09-28T09:34:09.369Z,16.12
2022-09-28T09:36:38.769Z,16.26
2022-09-28T09:39:17.485Z,16.39
2022-09-28T09:41:46.870Z,16.57
2022-09-28T09:44:19.384Z,16.70
2022-09-28T09:46:49.644Z,16.93
2022-09-28T09:49:24.796Z,17.00
2022-09-28T09:52:18.701Z,17.22
2022-09-28T09:54:58.575Z,17.37
2022-09-28T09:57:54.494Z,17.31
2022-09-28T10:00:21.918Z,17.41
2022-09-28T10:02:49.752Z,17.43
2022-09-28T10:05:29.217Z,17.37
2022-09-28T10:07:58.428Z,17.31
2022-09-28T10:10:29.581Z,17.22
2022-09-28T10:12:56.816Z,17.03
2022-09-28T10:15:28.434Z,16.92
2022-09-28T10:17:58.703Z,16.90
2022-09-28T10:20:25.666Z,16.88
2022-09-28T10:22:53.660Z,17.11
2022-09-28T10:25:20.427Z,17.40
2022-09-28T10:27:49.592Z,17.66
2022-09-28T10:30:20.266Z,17.82
2022-09-28T10:32:48.948Z,17.78
2022-09-28T10:35:18.604Z,17.80
2022-09-28T10:37:56.818Z,17.68
2022-09-28T10:40:46.446Z,17.43
2022-09-28T10:43:26.287Z,17.39
2022-09-28T10:46:13.575Z,17.37
2022-09-28T10:48:51.781Z,17.73
2022-09-28T10:51:18.319Z,17.89
2022-09-28T10:54:02.628Z,17.91
2022-09-28T10:56:35.858Z,17.85
2022-09-28T10:59:02.612Z,17.88
2022-09-28T11:01:34.421Z,17.81
2022-09-28T11:04:04.137Z,17.74
2022-09-28T11:06:36.787Z,17.68
2022-09-28T11:09:07.462Z,17.64
2022-09-28T11:11:42.095Z,17.55
2022-09-28T11:14:23.116Z,17.66
2022-09-28T11:17:26.401Z,18.27
2022-09-28T11:19:54.249Z,19.24
2022-09-28T11:22:51.734Z,19.93
2022-09-28T11:25:32.908Z,20.50
2022-09-28T11:28:04.493Z,20.93
2022-09-28T11:30:34.154Z,21.49
2022-09-28T11:33:05.795Z,21.60
2022-09-28T11:35:44.505Z,22.12
2022-09-28T11:38:36.079Z,22.55
2022-09-28T11:41:08.825Z,22.37
2022-09-28T11:43:47.530Z,22.82
2022-09-28T11:46:37.181Z,23.17
2022-09-28T11:49:16.108Z,23.59
2022-09-28T11:51:46.063Z,23.71
2022-09-28T11:54:28.960Z,24.24
2022-09-28T11:56:59.867Z,24.51
2022-09-28T11:59:32.758Z,25.11
2022-09-28T12:02:29.963Z,25.73
2022-09-28T12:05:14.903Z,26.37
2022-09-28T12:07:50.543Z,26.81
2022-09-28T12:10:20.160Z,26.92
2022-09-28T12:13:00.122Z,26.47
2022-09-28T12:16:12.956Z,25.66
2022-09-28T12:18:49.157Z,26.16
2022-09-28T12:21:24.712Z,25.84
2022-09-28T12:24:06.566Z,25.75
2022-09-28T12:26:38.814Z,26.27
2022-09-28T12:29:31.326Z,26.19
2022-09-28T12:32:26.220Z,26.90
2022-09-28T12:34:53.943Z,26.71
2022-09-28T12:37:43.597Z,26.81
2022-09-28T12:40:25.825Z,26.56
2022-09-28T12:43:01.327Z,26.47
2022-09-28T12:45:27.834Z,26.62
2022-09-28T12:48:26.170Z,26.51
2022-09-28T12:51:18.483Z,26.48
2022-09-28T12:54:12.791Z,25.93
2022-09-28T12:56:39.133Z,25.07
2022-09-28T12:59:35.266Z,24.08
2022-09-28T13:02:08.114Z,24.02
2022-09-28T13:04:49.939Z,23.32
2022-09-28T13:07:21.096Z,23.27
2022-09-28T13:10:07.499Z,23.51
2022-09-28T13:12:45.568Z,23.12
2022-09-28T13:15:45.487Z,22.65
2022-09-28T13:18:23.419Z,22.43
2022-09-28T13:21:13.004Z,22.32
2022-09-28T13:23:43.198Z,22.63
2022-09-28T13:26:19.659Z,22.83
2022-09-28T13:28:48.154Z,23.52
2022-09-28T13:31:20.472Z,24.03
2022-09-28T13:33:47.975Z,23.80
2022-09-28T13:36:26.609Z,23.67
2022-09-28T13:38:54.749Z,24.16
2022-09-28T13:41:47.413Z,25.03
2022-09-28T13:44:13.938Z,25.86
2022-09-28T13:47:21.345Z,26.56
2022-09-28T13:50:15.780Z,26.26
2022-09-28T13:52:52.432Z,25.55
2022-09-28T13:55:55.656Z,24.78
2022-09-28T13:58:30.094Z,23.91
2022-09-28T14:00:59.938Z,23.81
2022-09-28T14:03:28.345Z,23.62
2022-09-28T14:06:27.120Z,23.38
2022-09-28T14:09:15.982Z,23.35
2022-09-28T14:11:57.884Z,23.95
2022-09-28T14:14:31.137Z,24.58
2022-09-28T14:17:30.294Z,24.47
2022-09-28T14:20:03.719Z,24.08
2022-09-28T14:23:07.706Z,23.61
2022-09-28T14:25:41.057Z,23.16
2022-09-28T14:28:34.000Z,22.66
2022-09-28T14:31:08.589Z,22.07
2022-09-28T14:33:35.779Z,22.05
2022-09-28T14:36:07.607Z,22.15
2022-09-28T14:39:08.691Z,22.48
2022-09-28T14:41:38.459Z,22.89
2022-09-28T14:44:11.855Z,22.81
2022-09-28T14:46:46.646Z,22.46
2022-09-28T14:49:23.341Z,22.15
2022-09-28T14:51:55.937Z,22.23
2022-09-28T14:54:24.841Z,22.00
2022-09-28T14:56:54.424Z,21.76
2022-09-28T14:59:26.018Z,21.66
2022-09-28T15:01:57.958Z,21.12
2022-09-28T15:04:28.706Z,20.63
2022-09-28T15:06:55.551Z,20.19
2022-09-28T15:09:38.457Z,19.89
2022-09-28T15:12:12.190Z,19.81
2022-09-28T15:14:47.884Z,19.67
2022-09-28T15:17:21.501Z,19.36
2022-09-28T15:19:57.246Z,19.30
2022-09-28T15:22:24.300Z,19.19
2022-09-28T15:25:02.524Z,19.05
2022-09-28T15:27:38.889Z,18.96
2022-09-28T15:30:25.462Z,18.86
2022-09-28T15:32:56.584Z,18.68
2022-09-28T15:35:26.342Z,18.69
2022-09-28T15:37:54.926Z,18.75
2022-09-28T15:40:35.011Z,18.94
2022-09-28T15:43:03.775Z,18.94
2022-09-28T15:45:40.626Z,18.79
2022-09-28T15:48:18.440Z,18.61
2022-09-28T15:51:10.206Z,18.50
2022-09-28T15:53:43.013Z,18.39
2022-09-28T15:56:11.691Z,18.22
2022-09-28T15:58:39.487Z,18.23
2022-09-28T16:01:36.026Z,18.20
2022-09-28T16:04:31.919Z,17.87
2022-09-28T16:07:05.461Z,17.72
2022-09-28T16:09:34.575Z,17.64
2022-09-28T16:12:11.504Z,17.63
2022-09-28T16:14:38.047Z,17.45
2022-09-28T16:17:04.575Z,17.31
2022-09-28T16:19:37.474Z,17.26
2022-09-28T16:22:07.425Z,17.12
2022-09-28T16:24:37.339Z,17.14
2022-09-28T16:27:28.732Z,17.05
2022-09-28T16:30:21.671Z,16.94
2022-09-28T16:33:43.758Z,16.97
2022-09-28T16:36:17.241Z,16.92
2022-09-28T16:38:47.528Z,16.84
2022-09-28T16:41:27.058Z,16.87
2022-09-28T16:43:59.241Z,16.83
2022-09-28T16:46:32.554Z,16.75
2022-09-28T16:49:00.851Z,16.69
2022-09-28T16:51:27.850Z,16.63
2022-09-28T16:54:12.975Z,16.63
2022-09-28T16:56:39.466Z,16.57
2022-09-28T16:59:06.017Z,16.61
2022-09-28T17:01:32.978Z,16.64
2022-09-28T17:03:59.594Z,16.59
2022-09-28T17:06:27.275Z,16.57
2022-09-28T17:08:58.737Z,16.56
2022-09-28T17:11:25.450Z,16.48
2022-09-28T17:13:53.585Z,16.41
2022-09-28T17:16:32.510Z,16.40
2022-09-28T17:19:21.417Z,16.38
2022-09-28T17:21:48.158Z,16.29
2022-09-28T17:24:14.664Z,16.29
2022-09-28T17:26:43.806Z,16.33
2022-09-28T17:29:14.616Z,16.17
2022-09-28T17:31:45.614Z,16.16
2022-09-28T17:34:15.197Z,16.21
2022-09-28T17:36:42.652Z,16.19
2022-09-28T17:39:16.443Z,16.10
2022-09-28T17:41:43.348Z,16.01
2022-09-28T17:44:10.348Z,16.02
2022-09-28T17:46:40.632Z,16.07
2022-09-28T17:49:11.596Z,16.05
2022-09-28T17:51:38.399Z,15.96
2022-09-28T17:54:06.885Z,15.91
2022-09-28T17:56:34.374Z,15.97
2022-09-28T17:59:04.862Z,15.83
2022-09-28T18:01:34.361Z,15.79
2022-09-28T18:04:03.450Z,15.79
2022-09-28T18:06:30.196Z,15.73
2022-09-28T18:08:56.771Z,15.71
2022-09-28T18:11:23.587Z,15.73
2022-09-28T18:13:50.151Z,15.67
2022-09-28T18:16:17.569Z,15.54
2022-09-28T18:18:44.117Z,15.50
2022-09-28T18:21:10.736Z,15.47
2022-09-28T18:23:38.359Z,15.40
2022-09-28T18:26:11.020Z,15.31
2022-09-28T18:28:37.558Z,15.35
2022-09-28T18:31:08.949Z,15.28
2022-09-28T18:33:36.604Z,15.23
2022-09-28T18:36:05.354Z,15.21
2022-09-28T18:38:34.607Z,15.12
2022-09-28T18:41:14.443Z,15.03
2022-09-28T18:43:42.439Z,15.00
2022-09-28T18:46:10.571Z,14.98
2022-09-28T18:48:38.252Z,14.95
2022-09-28T18:51:08.753Z,14.93
2022-09-28T18:53:35.411Z,14.90
2022-09-28T18:56:07.941Z,14.88
2022-09-28T18:58:36.468Z,14.86
2022-09-28T19:04:03.922Z,14.84
2022-09-28T19:06:31.807Z,14.74
2022-09-28T19:08:58.680Z,14.71
2022-09-28T19:11:25.847Z,14.68
2022-09-28T19:13:54.517Z,14.63
2022-09-28T19:16:26.218Z,14.64
2022-09-28T19:18:53.649Z,14.62
2022-09-28T19:21:21.047Z,14.53
2022-09-28T19:23:49.859Z,14.38
2022-09-28T19:26:22.292Z,14.30
2022-09-28T19:28:49.220Z,14.20
2022-09-28T19:31:16.696Z,14.16
2022-09-28T19:33:46.408Z,14.11
2022-09-28T19:36:18.866Z,14.16
2022-09-28T19:38:46.254Z,14.15
2022-09-28T19:41:39.142Z,14.20
2022-09-28T19:44:19.792Z,14.18
2022-09-28T19:46:46.472Z,14.12
2022-09-28T19:49:19.388Z,14.15
2022-09-28T19:52:11.696Z,14.14
2022-09-28T19:54:38.172Z,14.09
2022-09-28T19:57:08.770Z,14.08
2022-09-28T19:59:37.675Z,14.05
2022-09-28T20:02:07.432Z,14.00
2022-09-28T20:04:33.993Z,14.01
2022-09-28T20:07:00.758Z,13.95
2022-09-28T20:09:27.286Z,13.91
2022-09-28T20:11:53.846Z,13.92
2022-09-28T20:14:22.445Z,13.90
2022-09-28T20:16:51.127Z,13.93
2022-09-28T20:19:19.476Z,13.91
2022-09-28T20:21:48.072Z,13.87
2022-09-28T20:24:16.207Z,13.83
2022-09-28T20:26:43.382Z,13.83
2022-09-28T20:29:10.637Z,13.81
2022-09-28T20:31:37.938Z,13.80
2022-09-28T20:34:05.607Z,13.73
2022-09-28T20:36:32.603Z,13.68
2022-09-28T20:39:02.952Z,13.61
2022-09-28T20:41:36.619Z,13.63
2022-09-28T20:44:06.369Z,13.65
2022-09-28T20:46:34.798Z,13.71
2022-09-28T20:49:01.656Z,13.64
2022-09-28T20:51:28.238Z,13.64
2022-09-28T20:53:56.373Z,13.67
2022-09-28T20:56:23.831Z,13.61
2022-09-28T20:58:51.128Z,13.58
2022-09-28T21:01:26.429Z,13.59
2022-09-28T21:03:55.143Z,13.64
2022-09-28T21:06:23.910Z,13.56
2022-09-28T21:08:50.644Z,13.58
2022-09-28T21:11:19.440Z,13.59
2022-09-28T21:13:46.234Z,13.61
2022-09-28T21:16:15.575Z,13.58
2022-09-28T21:18:42.469Z,13.56
2022-09-28T21:21:14.403Z,13.56
2022-09-28T21:23:41.005Z,13.55
2022-09-28T21:26:09.934Z,13.51
2022-09-28T21:28:37.475Z,13.49
2022-09-28T21:31:10.321Z,13.46
2022-09-28T21:33:37.239Z,13.47
2022-09-28T21:36:06.314Z,13.41
2022-09-28T21:38:33.264Z,13.37
2022-09-28T21:41:00.518Z,13.31
2022-09-28T21:43:28.500Z,13.27
2022-09-28T21:45:56.468Z,13.20
2022-09-28T21:48:24.604Z,13.16
2022-09-28T21:51:13.274Z,13.17
2022-09-28T21:53:39.786Z,13.17
2022-09-28T21:56:09.474Z,13.10
2022-09-28T21:58:37.025Z,13.04
2022-09-28T22:01:06.995Z,13.01
2022-09-28T22:03:35.559Z,12.99
2022-09-28T22:06:06.071Z,13.00
2022-09-28T22:08:33.651Z,12.98
2022-09-28T22:11:17.931Z,12.95
2022-09-28T22:13:50.382Z,12.95
2022-09-28T22:16:20.399Z,12.93
2022-09-28T22:18:47.831Z,12.94
2022-09-28T22:21:17.844Z,12.95
2022-09-28T22:23:45.017Z,12.94
2022-09-28T22:26:18.880Z,12.98
2022-09-28T22:28:47.852Z,12.98
2022-09-28T22:31:15.399Z,12.98
2022-09-28T22:33:41.982Z,12.96
2022-09-28T22:36:08.507Z,12.92
2022-09-28T22:38:35.371Z,12.89
2022-09-28T22:41:05.149Z,12.91
2022-09-28T22:43:33.182Z,12.89
2022-09-28T22:46:07.697Z,12.87
2022-09-28T22:48:34.848Z,12.85
2022-09-28T22:51:02.571Z,12.79
2022-09-28T22:53:29.894Z,12.79
2022-09-28T22:56:06.072Z,12.75
2022-09-28T22:58:34.184Z,12.74
2022-09-28T23:01:11.146Z,12.80
2022-09-28T23:03:42.216Z,12.80
2022-09-28T23:06:10.220Z,12.79
2022-09-28T23:08:36.877Z,12.78
2022-09-28T23:11:03.838Z,12.79
2022-09-28T23:13:31.130Z,12.75
2022-09-28T23:16:03.355Z,12.76
2022-09-28T23:18:32.630Z,12.73
2022-09-28T23:21:01.920Z,12.72
2022-09-28T23:23:29.085Z,12.69
2022-09-28T23:25:56.142Z,12.66
2022-09-28T23:28:24.782Z,12.62
2022-09-28T23:30:52.077Z,12.65
2022-09-28T23:33:20.358Z,12.61
2022-09-28T23:35:47.248Z,12.59
2022-09-28T23:38:17.987Z,12.64
2022-09-28T23:40:46.470Z,12.63
2022-09-28T23:43:13.559Z,12.66
2022-09-28T23:45:42.245Z,12.64
2022-09-28T23:48:09.226Z,12.64
2022-09-28T23:50:35.749Z,12.64
2022-09-28T23:53:02.234Z,12.64
2022-09-28T23:55:29.135Z,12.63
2022-09-28T23:57:56.689Z,12.63
